Time;durP1;ratioP1;P1;durP2;ratioP2;P2;SDS_P1;SDS_P2;PMS_P1;PMS_P2;Temp;Humidity;BMP_temperature;BMP_pressure;BME280_temperature;BME280_humidity;BME280_pressure;Samples;Min_cycle;Max_cycle;Signal;HPM_P1;HPM_P2
2023/03/18 00:05:34;;;;;;;;;;;;;;;3.73;62.61;101449.58;107537;1254;71715;-91
2023/03/18 00:28:14;;;;;;;;;;;;;;;3.42;62.65;101443.27;107595;1257;62523;-89
2023/03/18 00:37:35;;;;;;;;;;;;;;;3.27;62.79;101438.19;107630;1254;123532;-90
2023/03/18 00:40:09;;;;;;;;;;;;;;;3.26;62.83;101437.56;107374;1261;61286;-89
2023/03/18 00:42:56;;;;;;;;;;;;;;;3.24;63.09;101436.92;107573;1258;123697;-90
2023/03/18 00:45:55;;;;;;;;;;;;;;;3.23;63.05;101441.90;107710;1255;74732;-90
2023/03/18 00:48:48;;;;;;;;;;;;;;;3.22;63.10;101442.18;107568;1253;123789;-89
2023/03/18 00:54:54;;;;;;;;;;;;;;;3.20;63.12;101432.99;107383;1259;123760;-90
2023/03/18 01:00:58;;;;;;;;;;;;;;;3.12;63.30;101436.83;107499;1254;123722;-92
2023/03/18 01:03:38;;;;;;;;;;;;;;;3.07;63.26;101434.77;107393;1257;65851;-89
2023/03/18 01:06:13;;;;;;;;;;;;;;;3.01;63.33;101433.51;107339;1254;124158;-90
2023/03/18 01:08:53;;;;;;;;;;;;;;;2.96;63.32;101432.95;107282;1254;60073;-90
2023/03/18 01:15:03;;;;;;;;;;;;;;;2.81;63.63;101425.93;107639;1255;75179;-91
2023/03/18 01:17:53;;;;;;;;;;;;;;;2.74;63.62;101425.63;107586;1258;123961;-91
2023/03/18 01:20:23;;;;;;;;;;;;;;;2.67;63.65;101427.05;108161;1255;73332;-85
2023/03/18 01:22:55;;;;;;;;;;;;;;;2.61;63.66;101428.88;107995;1254;59911;-86
2023/03/18 01:25:26;;;;;;;;;;;;;;;2.56;63.90;101425.23;107512;1257;124326;-85
2023/03/18 01:27:53;;;;;;;;;;;;;;;2.50;64.01;101426.45;107808;1258;74687;-85
2023/03/18 01:33:34;;;;;;;;;;;;;;;2.41;64.10;101413.51;107733;1254;72934;-89
2023/03/18 01:36:02;;;;;;;;;;;;;;;2.40;64.15;101408.08;107289;1257;124133;-85
2023/03/18 01:38:36;;;;;;;;;;;;;;;2.41;64.30;101410.39;107621;1254;60199;-85
2023/03/18 01:44:28;;;;;;;;;;;;;;;2.41;64.37;101405.52;107599;1254;65800;-89
2023/03/18 01:47:20;;;;;;;;;;;;;;;2.40;64.24;101405.27;107378;1254;72653;-90
2023/03/18 01:50:03;;;;;;;;;;;;;;;2.38;64.30;101406.58;107552;1254;59155;-90
2023/03/18 01:55:52;;;;;;;;;;;;;;;2.35;64.48;101406.52;107729;1254;73640;-85
2023/03/18 01:58:20;;;;;;;;;;;;;;;2.33;64.39;101406.96;107650;1262;68434;-86
2023/03/18 02:00:52;;;;;;;;;;;;;;;2.33;64.52;101402.24;107404;1254;123877;-85
2023/03/18 02:03:19;;;;;;;;;;;;;;;2.31;64.56;101401.27;107703;1259;61253;-85
2023/03/18 02:05:52;;;;;;;;;;;;;;;2.33;64.58;101407.98;107709;1259;124222;-89
2023/03/18 02:08:23;;;;;;;;;;;;;;;2.34;64.66;101403.36;107820;1260;75752;-84
2023/03/18 02:14:31;;;;;;;;;;;;;;;2.36;64.73;101403.81;107736;1254;72236;-86
2023/03/18 02:17:00;;;;;;;;;;;;;;;2.37;64.72;101403.21;107845;1254;60894;-86
2023/03/18 02:19:46;;;;;;;;;;;;;;;2.39;64.80;101393.63;107709;1254;59914;-85
2023/03/18 02:22:28;;;;;;;;;;;;;;;2.40;64.76;101386.58;107314;1260;73927;-85
2023/03/18 02:25:31;;;;;;;;;;;;;;;2.41;64.78;101392.73;107480;1254;65982;-90
2023/03/18 02:28:06;;;;;;;;;;;;;;;2.43;64.75;101392.34;107731;1254;71576;-85
2023/03/18 02:30:41;;;;;;;;;;;;;;;2.45;64.89;101386.94;107602;1254;59628;-85
2023/03/18 02:33:08;;;;;;;;;;;;;;;2.46;64.99;101389.23;107670;1254;61199;-86
2023/03/18 02:35:42;;;;;;;;;;;;;;;2.46;64.90;101390.81;108094;1254;74409;-85
2023/03/18 02:44:53;;;;;;;;;;;;;;;2.40;64.70;101395.42;108060;1254;59453;-89
2023/03/18 02:47:48;;;;;;;;;;;;;;;2.35;64.70;101399.44;107893;1254;60540;-90
2023/03/18 02:50:16;;;;;;;;;;;;;;;2.30;64.85;101395.12;107856;1254;74631;-84
2023/03/18 02:52:43;;;;;;;;;;;;;;;2.27;64.75;101395.05;108063;1258;65497;-85
2023/03/18 02:55:11;;;;;;;;;;;;;;;2.23;65.04;101392.21;107957;1257;124254;-85
2023/03/18 02:57:38;;;;;;;;;;;;;;;2.20;64.91;101394.94;108177;1257;61183;-85
2023/03/18 03:00:06;;;;;;;;;;;;;;;2.16;65.11;101384.64;107768;1257;124123;-85
2023/03/18 03:02:34;;;;;;;;;;;;;;;2.13;65.01;101388.41;107895;1258;73101;-84
2023/03/18 03:05:01;;;;;;;;;;;;;;;2.09;65.11;101390.59;107959;1256;67462;-85
2023/03/18 03:07:29;;;;;;;;;;;;;;;2.06;65.06;101392.45;107918;1257;124842;-85
2023/03/18 03:09:56;;;;;;;;;;;;;;;2.03;65.24;101393.63;108009;1256;61362;-85
2023/03/18 03:12:23;;;;;;;;;;;;;;;2.01;65.24;101391.06;107799;1261;124988;-84
2023/03/18 03:14:51;;;;;;;;;;;;;;;2.01;65.20;101396.71;108052;1257;74276;-84
2023/03/18 03:17:18;;;;;;;;;;;;;;;2.00;65.27;101396.15;108868;1256;67074;-84
2023/03/18 03:19:45;;;;;;;;;;;;;;;1.98;65.18;101389.95;108260;1260;124561;-85
2023/03/18 03:22:16;;;;;;;;;;;;;;;1.98;65.34;101388.04;107700;1256;60574;-84
2023/03/18 03:24:50;;;;;;;;;;;;;;;1.97;65.35;101389.89;107559;1258;124505;-84
2023/03/18 03:27:17;;;;;;;;;;;;;;;1.96;65.42;101384.65;107691;1257;73856;-86
2023/03/18 03:29:44;;;;;;;;;;;;;;;1.96;65.35;101382.05;107542;1256;65252;-85
2023/03/18 03:32:11;;;;;;;;;;;;;;;1.99;65.34;101380.66;107580;1256;125023;-86
2023/03/18 03:34:45;;;;;;;;;;;;;;;1.99;65.31;101379.98;107698;1256;61070;-85
2023/03/18 03:37:12;;;;;;;;;;;;;;;1.99;65.38;101383.60;107456;1261;124613;-85
2023/03/18 03:39:39;;;;;;;;;;;;;;;1.99;65.49;101383.98;107439;1257;73773;-85
2023/03/18 03:42:06;;;;;;;;;;;;;;;1.99;65.30;101378.61;107844;1257;123933;-85
2023/03/18 03:44:34;;;;;;;;;;;;;;;1.99;65.49;101384.15;107423;1256;73262;-85
2023/03/18 03:47:03;;;;;;;;;;;;;;;1.98;65.20;101382.34;107356;1256;59325;-84
2023/03/18 03:49:37;;;;;;;;;;;;;;;1.97;65.43;101376.59;107429;1257;124279;-85
2023/03/18 03:52:05;;;;;;;;;;;;;;;1.96;65.30;101372.67;107596;1256;73397;-85
2023/03/18 03:54:40;;;;;;;;;;;;;;;1.95;65.28;101370.01;107548;1256;124266;-85
2023/03/18 03:57:13;;;;;;;;;;;;;;;1.94;65.48;101367.55;107608;1259;71280;-85
2023/03/18 03:59:42;;;;;;;;;;;;;;;1.94;65.47;101367.52;107432;1257;61301;-85
2023/03/18 04:02:16;;;;;;;;;;;;;;;1.92;65.30;101365.33;107622;1258;123653;-85
2023/03/18 04:04:44;;;;;;;;;;;;;;;1.91;65.41;101365.77;107590;1256;72449;-85
2023/03/18 04:07:23;;;;;;;;;;;;;;;1.90;65.42;101365.87;107256;1257;124637;-84
2023/03/18 04:09:50;;;;;;;;;;;;;;;1.90;65.54;101363.61;107148;1257;71641;-85
2023/03/18 04:12:18;;;;;;;;;;;;;;;1.89;65.58;101360.13;107223;1258;124143;-85
2023/03/18 04:14:53;;;;;;;;;;;;;;;1.90;65.63;101363.80;107498;1257;59616;-85
2023/03/18 04:17:21;;;;;;;;;;;;;;;1.91;65.83;101365.05;107828;1256;74691;-85
2023/03/18 04:19:49;;;;;;;;;;;;;;;1.92;65.58;101363.39;107499;1257;124076;-85
2023/03/18 04:22:17;;;;;;;;;;;;;;;1.91;65.62;101361.79;107699;1257;71563;-85
2023/03/18 04:24:45;;;;;;;;;;;;;;;1.92;65.66;101366.52;107518;1257;124407;-85
2023/03/18 04:27:24;;;;;;;;;;;;;;;1.92;65.67;101358.42;107808;1254;59984;-86
2023/03/18 04:29:52;;;;;;;;;;;;;;;1.91;65.66;101359.22;107657;1257;124035;-85
2023/03/18 04:32:19;;;;;;;;;;;;;;;1.92;65.84;101351.97;107760;1257;67106;-85
2023/03/18 04:34:56;;;;;;;;;;;;;;;1.91;65.69;101354.85;107617;1256;70858;-85
2023/03/18 04:37:24;;;;;;;;;;;;;;;1.90;65.89;101351.15;107544;1256;123838;-84
2023/03/18 04:39:51;;;;;;;;;;;;;;;1.88;65.67;101353.63;107722;1259;59307;-85
2023/03/18 04:42:44;;;;;;;;;;;;;;;1.85;65.86;101352.88;107549;1257;123968;-85
2023/03/18 04:45:21;;;;;;;;;;;;;;;1.83;65.98;101350.89;107362;1257;66842;-85
2023/03/18 04:47:48;;;;;;;;;;;;;;;1.82;65.86;101351.60;107379;1257;124049;-86
2023/03/18 04:50:17;;;;;;;;;;;;;;;1.80;65.94;101350.82;107469;1258;61295;-86
2023/03/18 04:52:45;;;;;;;;;;;;;;;1.81;66.01;101352.23;107324;1257;59999;-85
2023/03/18 04:55:20;;;;;;;;;;;;;;;1.81;66.04;101349.80;107524;1257;123905;-86
2023/03/18 04:57:50;;;;;;;;;;;;;;;1.81;66.17;101358.29;107580;1257;67392;-85
2023/03/18 05:00:20;;;;;;;;;;;;;;;1.81;66.14;101356.43;107390;1256;123947;-85
2023/03/18 05:02:48;;;;;;;;;;;;;;;1.83;66.09;101355.16;107395;1257;61270;-86
2023/03/18 05:05:15;;;;;;;;;;;;;;;1.85;66.11;101354.45;107253;1257;61240;-86
2023/03/18 05:07:51;;;;;;;;;;;;;;;1.86;66.11;101353.48;106921;1256;124233;-86
2023/03/18 05:10:18;;;;;;;;;;;;;;;1.88;66.16;101344.09;107495;1256;66976;-86
2023/03/18 05:12:45;;;;;;;;;;;;;;;1.90;66.16;101338.22;107427;1257;123959;-86
2023/03/18 05:15:21;;;;;;;;;;;;;;;1.94;66.26;101338.30;107296;1256;60744;-85
2023/03/18 05:17:56;;;;;;;;;;;;;;;1.99;66.25;101340.67;107117;1256;124396;-84
2023/03/18 05:20:26;;;;;;;;;;;;;;;2.07;66.33;101340.35;107187;1257;74645;-85
2023/03/18 05:23:05;;;;;;;;;;;;;;;2.15;66.23;101340.21;107309;1257;66278;-85
2023/03/18 05:25:54;;;;;;;;;;;;;;;2.27;66.26;101331.15;107264;1256;124549;-89
2023/03/18 05:28:42;;;;;;;;;;;;;;;2.41;66.23;101330.56;107340;1257;61273;-89
2023/03/18 05:31:48;;;;;;;;;;;;;;;2.60;66.04;101337.16;107545;1257;124997;-94
2023/03/18 05:34:43;;;;;;;;;;;;;;;2.79;66.14;101342.08;107186;1263;76307;-86
2023/03/18 05:37:30;;;;;;;;;;;;;;;2.96;65.89;101339.70;106821;1267;124568;-89
2023/03/18 05:44:01;;;;;;;;;;;;;;;3.30;65.49;101340.48;107165;1263;123790;-93
2023/03/18 05:46:34;;;;;;;;;;;;;;;3.42;65.22;101335.34;106689;1269;60509;-87
2023/03/18 05:49:14;;;;;;;;;;;;;;;3.52;65.10;101334.42;106680;1270;124671;-84
2023/03/18 05:52:07;;;;;;;;;;;;;;;3.62;65.01;101337.99;106836;1267;67294;-87
2023/03/18 05:54:41;;;;;;;;;;;;;;;3.73;64.85;101335.55;106625;1267;123907;-88
2023/03/18 05:57:21;;;;;;;;;;;;;;;3.81;64.69;101334.12;106507;1267;62189;-88
2023/03/18 06:00:03;;;;;;;;;;;;;;;3.90;64.67;101334.70;106280;1268;124021;-89
2023/03/18 06:02:31;;;;;;;;;;;;;;;3.99;64.55;101336.11;106371;1267;72439;-87
2023/03/18 06:05:12;;;;;;;;;;;;;;;4.06;64.29;101337.79;106590;1260;67561;-90
2023/03/18 06:07:54;;;;;;;;;;;;;;;4.15;64.36;101337.60;106598;1260;123945;-87
2023/03/18 06:10:21;;;;;;;;;;;;;;;4.23;64.33;101337.20;106838;1260;60072;-87
2023/03/18 06:12:54;;;;;;;;;;;;;;;4.27;63.91;101334.35;106675;1260;124230;-87
2023/03/18 06:15:27;;;;;;;;;;;;;;;4.34;63.93;101324.67;106966;1260;74495;-89
2023/03/18 06:17:55;;;;;;;;;;;;;;;4.42;63.90;101324.80;106715;1260;124133;-89
2023/03/18 06:20:42;;;;;;;;;;;;;;;;;;;;;
2023/03/18 06:23:55;;;;;;;;;;;;;;;4.66;63.69;101325.33;107206;1261;61269;-93
2023/03/18 06:27:28;;;;;;;;;;;;;;;4.79;63.42;101328.33;106683;1267;61354;-87
2023/03/18 06:29:55;;;;;;;;;;;;;;;4.85;63.16;101333.17;106508;1267;124438;-86
2023/03/18 06:32:22;;;;;;;;;;;;;;;4.91;63.07;101334.38;106840;1266;66097;-87
2023/03/18 06:34:49;;;;;;;;;;;;;;;4.96;62.94;101331.20;106770;1268;71510;-86
2023/03/18 06:37:16;;;;;;;;;;;;;;;5.01;62.85;101329.73;106863;1266;123892;-88
2023/03/18 06:39:50;;;;;;;;;;;;;;;5.08;62.83;101327.87;106868;1267;61250;-86
2023/03/18 06:42:18;;;;;;;;;;;;;;;5.15;62.62;101332.27;106551;1271;124340;-90
2023/03/18 06:44:53;;;;;;;;;;;;;;;5.23;62.60;101334.30;106690;1267;66102;-92
2023/03/18 06:47:33;;;;;;;;;;;;;;;5.36;62.52;101341.25;106603;1267;71398;-88
2023/03/18 06:50:28;;;;;;;;;;;;;;;5.48;62.36;101342.77;106793;1260;123948;-88
2023/03/18 06:52:56;;;;;;;;;;;;;;;5.56;62.13;101342.16;106977;1260;60664;-89
2023/03/18 06:55:48;;;;;;;;;;;;;;;5.64;61.94;101339.30;107047;1259;123895;-89
2023/03/18 06:58:35;;;;;;;;;;;;;;;5.70;61.82;101340.87;106896;1260;66048;-92
2023/03/18 07:01:31;;;;;;;;;;;;;;;5.80;61.79;101339.96;106769;1260;123907;-93
2023/03/18 07:04:32;;;;;;;;;;;;;;;5.89;61.71;101339.78;107417;1254;60564;-86
2023/03/18 07:10:32;;;;;;;;;;;;;;;6.13;61.33;101347.70;107494;1254;73463;-88
2023/03/18 07:13:37;;;;;;;;;;;;;;;6.22;61.11;101351.63;107474;1254;124271;-90
2023/03/18 07:16:18;;;;;;;;;;;;;;;6.33;61.03;101343.83;107443;1254;72417;-86
2023/03/18 07:22:24;;;;;;;;;;;;;;;6.60;60.68;101345.38;107459;1254;61209;-85
2023/03/18 07:25:00;;;;;;;;;;;;;;;6.71;60.53;101343.89;107370;1254;124617;-85
2023/03/18 07:30:21;;;;;;;;;;;;;;;6.95;60.22;101347.83;107589;1254;124501;-85
2023/03/18 07:32:50;;;;;;;;;;;;;;;6.98;59.85;101345.37;107492;1254;62162;-86
2023/03/18 07:35:30;;;;;;;;;;;;;;;7.04;59.78;101346.70;107301;1259;62204;-86
2023/03/18 07:38:13;;;;;;;;;;;;;;;7.14;59.69;101340.55;107239;1254;124047;-82
2023/03/18 07:40:56;;;;;;;;;;;;;;;7.20;59.46;101338.20;107490;1254;67087;-85
2023/03/18 07:43:25;;;;;;;;;;;;;;;7.29;59.24;101334.95;107546;1254;123883;-86
2023/03/18 07:46:06;;;;;;;;;;;;;;;7.37;59.12;101332.42;107712;1254;61365;-85
2023/03/18 07:48:33;;;;;;;;;;;;;;;7.49;58.95;101331.20;107073;1260;124188;-84
2023/03/18 07:51:00;;;;;;;;;;;;;;;7.56;58.71;101326.68;107668;1254;73186;-84
2023/03/18 07:53:38;;;;;;;;;;;;;;;7.61;58.45;101328.80;107893;1254;67122;-85
2023/03/18 07:56:30;;;;;;;;;;;;;;;7.71;58.43;101325.08;107639;1254;122944;-85
2023/03/18 07:59:09;;;;;;;;;;;;;;;7.76;58.06;101322.84;107700;1254;61264;-84
2023/03/18 08:01:38;;;;;;;;;;;;;;;7.78;57.87;101320.85;107564;1254;124118;-85
2023/03/18 08:04:13;;;;;;;;;;;;;;;7.86;57.82;101319.44;107595;1254;73157;-84
2023/03/18 08:06:59;;;;;;;;;;;;;;;7.98;57.88;101316.86;107533;1254;123990;-84
2023/03/18 08:09:26;;;;;;;;;;;;;;;8.10;57.62;101312.81;107795;1254;71408;-83
2023/03/18 08:11:59;;;;;;;;;;;;;;;8.20;57.54;101310.45;107548;1254;61448;-84
2023/03/18 08:14:26;;;;;;;;;;;;;;;8.32;57.37;101306.80;107726;1254;124065;-85
2023/03/18 08:17:14;;;;;;;;;;;;;;;8.44;57.17;101308.54;107749;1254;74400;-86
2023/03/18 08:19:41;;;;;;;;;;;;;;;8.53;56.94;101306.48;107846;1256;124386;-85
2023/03/18 08:22:10;;;;;;;;;;;;;;;8.64;56.72;101308.33;107897;1254;70733;-85
2023/03/18 08:24:38;;;;;;;;;;;;;;;8.75;56.56;101309.50;107900;1254;124340;-85
2023/03/18 08:27:05;;;;;;;;;;;;;;;8.85;56.41;101312.70;107946;1254;59655;-86
2023/03/18 08:29:32;;;;;;;;;;;;;;;8.98;56.29;101307.63;108311;1254;74660;-88
2023/03/18 08:32:00;;;;;;;;;;;;;;;9.11;56.08;101300.98;108090;1254;124962;-87
2023/03/18 08:34:28;;;;;;;;;;;;;;;9.19;55.77;101296.40;107712;1254;72424;-84
2023/03/18 08:36:58;;;;;;;;;;;;;;;9.24;55.60;101295.52;107401;1254;124012;-86
2023/03/18 08:39:26;;;;;;;;;;;;;;;9.26;55.26;101295.42;107709;1254;61280;-90
2023/03/18 08:41:55;;;;;;;;;;;;;;;9.32;55.29;101292.51;107901;1254;73049;-88
2023/03/18 08:44:40;;;;;;;;;;;;;;;9.38;55.31;101290.29;107739;1254;124088;-90
2023/03/18 08:47:15;;;;;;;;;;;;;;;9.46;55.23;101290.05;107723;1254;72646;-87
2023/03/18 08:49:42;;;;;;;;;;;;;;;9.54;55.03;101283.52;107829;1254;124263;-85
2023/03/18 08:52:09;;;;;;;;;;;;;;;9.63;54.93;101273.52;108845;1254;59372;-80
2023/03/18 08:54:36;;;;;;;;;;;;;;;9.71;54.79;101270.15;108974;1256;124085;-81
2023/03/18 08:57:04;;;;;;;;;;;;;;;9.76;54.49;101267.34;109103;1254;66805;-83
2023/03/18 08:59:31;;;;;;;;;;;;;;;9.86;54.61;101267.38;108598;1256;71303;-82
2023/03/18 09:02:02;;;;;;;;;;;;;;;9.99;54.40;101269.41;107793;1256;123995;-83
2023/03/18 09:04:31;;;;;;;;;;;;;;;10.05;54.09;101270.15;107838;1255;61485;-83
2023/03/18 09:07:00;;;;;;;;;;;;;;;10.10;53.89;101262.61;107955;1257;124818;-82
2023/03/18 09:09:27;;;;;;;;;;;;;;;10.16;53.83;101263.69;107509;1255;65724;-80
2023/03/18 09:11:55;;;;;;;;;;;;;;;10.25;53.67;101266.09;107545;1256;71117;-82
2023/03/18 09:14:29;;;;;;;;;;;;;;;10.32;53.55;101264.45;107349;1256;123970;-82
2023/03/18 09:16:58;;;;;;;;;;;;;;;10.42;53.42;101265.29;107696;1256;61266;-83
2023/03/18 09:19:26;;;;;;;;;;;;;;;10.56;53.29;101260.69;107227;1254;124196;-83
2023/03/18 09:21:53;;;;;;;;;;;;;;;10.72;52.96;101264.88;107309;1255;65663;-83
2023/03/18 09:24:20;;;;;;;;;;;;;;;10.80;52.68;101263.05;107169;1258;124324;-85
2023/03/18 09:26:48;;;;;;;;;;;;;;;10.87;52.69;101259.77;107450;1256;61366;-84
2023/03/18 09:29:15;;;;;;;;;;;;;;;11.01;52.69;101261.25;107402;1256;60537;-83
2023/03/18 09:31:50;;;;;;;;;;;;;;;11.14;52.64;101261.11;107324;1256;125040;-84
2023/03/18 09:34:18;;;;;;;;;;;;;;;11.28;52.47;101256.13;107511;1256;65571;-84
2023/03/18 09:37:12;;;;;;;;;;;;;;;11.40;52.28;101252.79;107112;1256;124637;-85
2023/03/18 09:39:57;;;;;;;;;;;;;;;11.55;52.15;101245.83;107164;1257;275429;-86
2023/03/18 09:45:43;;;;;;;;;;;;;;;11.80;51.63;101243.73;107668;1254;73415;-84
2023/03/18 09:52:03;;;;;;;;;;;;;;;11.98;51.07;101243.56;107557;1254;72712;-84
2023/03/18 09:54:50;;;;;;;;;;;;;;;12.10;51.06;101242.63;106926;1261;127505;-85
2023/03/18 09:57:21;;;;;;;;;;;;;;;12.22;50.91;101240.84;107646;1254;61026;-80
2023/03/18 09:59:54;;;;;;;;;;;;;;;12.26;50.35;101237.95;107613;1255;74667;-81
2023/03/18 10:02:40;;;;;;;;;;;;;;;12.29;50.15;101239.80;107253;1254;124501;-84
2023/03/18 10:05:15;;;;;;;;;;;;;;;12.36;50.06;101235.58;107766;1253;72733;-86
2023/03/18 10:07:46;;;;;;;;;;;;;;;12.46;49.91;101229.83;107243;1255;124270;-82
2023/03/18 10:10:23;;;;;;;;;;;;;;;12.55;49.89;101232.00;107533;1260;60533;-83
2023/03/18 10:13:06;;;;;;;;;;;;;;;12.63;49.60;101234.48;107459;1254;124668;-82
2023/03/18 10:15:35;;;;;;;;;;;;;;;12.64;49.29;101239.08;107606;1254;66040;-85
2023/03/18 10:18:29;;;;;;;;;;;;;;;12.62;49.08;101242.56;107711;1254;71466;-86
2023/03/18 10:21:16;;;;;;;;;;;;;;;12.60;49.00;101242.86;107441;1254;61388;-86
2023/03/18 10:23:54;;;;;;;;;;;;;;;12.67;49.00;101238.96;107549;1257;61250;-84
2023/03/18 10:26:24;;;;;;;;;;;;;;;12.73;48.89;101231.20;107555;1254;124162;-84
2023/03/18 10:29:00;;;;;;;;;;;;;;;12.79;48.70;101226.05;108055;1253;65905;-83
2023/03/18 10:31:46;;;;;;;;;;;;;;;12.78;48.40;101221.28;108018;1254;124268;-84
2023/03/18 10:34:32;;;;;;;;;;;;;;;12.82;48.53;101218.02;107449;1253;59999;-84
2023/03/18 10:37:38;;;;;;;;;;;;;;;12.87;48.40;101210.20;107055;1254;124213;-85
2023/03/18 10:40:12;;;;;;;;;;;;;;;12.94;48.48;101202.27;106685;1260;73087;-85
2023/03/18 10:43:01;;;;;;;;;;;;;;;12.94;48.27;101201.73;106770;1260;124658;-84
2023/03/18 10:45:32;;;;;;;;;;;;;;;12.89;48.34;101193.17;107152;1256;71102;-85
2023/03/18 10:48:03;;;;;;;;;;;;;;;12.83;48.10;101187.77;107323;1254;61802;-85
2023/03/18 10:54:04;;;;;;;;;;;;;;;12.68;47.83;101176.67;107328;1253;74671;-83
2023/03/18 10:56:37;;;;;;;;;;;;;;;12.70;48.01;101177.41;107328;1254;124261;-83
2023/03/18 10:59:10;;;;;;;;;;;;;;;12.74;47.85;101173.45;107305;1254;71459;-83
2023/03/18 11:01:40;;;;;;;;;;;;;;;12.77;47.68;101173.52;107205;1254;124710;-82
2023/03/18 11:04:13;;;;;;;;;;;;;;;12.75;47.59;101175.26;107539;1254;61211;-83
2023/03/18 11:07:01;;;;;;;;;;;;;;;12.73;47.67;101178.38;107327;1261;124585;-82
2023/03/18 11:09:35;;;;;;;;;;;;;;;12.75;47.48;101183.87;107538;1254;66173;-84
2023/03/18 11:12:04;;;;;;;;;;;;;;;12.75;47.38;101183.86;107721;1254;72528;-83
2023/03/18 11:14:31;;;;;;;;;;;;;;;12.78;47.50;101190.30;107983;1254;124228;-82
2023/03/18 11:17:01;;;;;;;;;;;;;;;12.83;47.51;101193.04;107783;1254;61122;-84
2023/03/18 11:19:40;;;;;;;;;;;;;;;12.83;47.36;101194.61;107120;1254;124546;-85
2023/03/18 11:22:18;;;;;;;;;;;;;;;12.84;47.34;101195.89;107158;1259;67150;-85
2023/03/18 11:24:47;;;;;;;;;;;;;;;12.89;47.31;101188.95;107359;1258;124649;-84
2023/03/18 11:27:16;;;;;;;;;;;;;;;12.98;47.35;101195.14;109030;1254;59366;-86
2023/03/18 11:29:45;;;;;;;;;;;;;;;13.08;47.33;101193.95;107821;1254;59892;-84
2023/03/18 11:32:41;;;;;;;;;;;;;;;13.17;47.32;101192.04;107953;1256;124273;-83
2023/03/18 11:35:16;;;;;;;;;;;;;;;13.25;47.10;101189.39;107803;1254;65659;-85
2023/03/18 11:37:49;;;;;;;;;;;;;;;13.27;47.14;101188.36;107666;1260;124446;-85
2023/03/18 11:43:52;;;;;;;;;;;;;;;13.38;46.92;101176.13;107251;1258;124253;-84
2023/03/18 11:46:22;;;;;;;;;;;;;;;13.42;46.90;101171.26;107535;1256;73472;-85
2023/03/18 11:48:55;;;;;;;;;;;;;;;13.44;46.80;101173.94;107217;1262;125024;-85
2023/03/18 11:51:25;;;;;;;;;;;;;;;13.48;46.75;101175.60;107338;1254;71516;-84
2023/03/18 11:53:52;;;;;;;;;;;;;;;13.52;46.60;101176.91;107287;1254;61386;-81
2023/03/18 11:56:23;;;;;;;;;;;;;;;13.53;46.64;101174.64;107545;1257;124549;-81
2023/03/18 11:59:15;;;;;;;;;;;;;;;13.58;46.50;101166.62;107468;1254;75840;-81
2023/03/18 12:02:01;;;;;;;;;;;;;;;13.54;46.32;101147.67;107558;1254;124000;-81
2023/03/18 12:04:37;;;;;;;;;;;;;;;13.52;46.40;101146.77;107963;1254;72657;-81
2023/03/18 12:07:20;;;;;;;;;;;;;;;13.55;46.32;101140.83;107933;1256;124237;-81
2023/03/18 12:10:04;;;;;;;;;;;;;;;13.58;46.23;101139.48;107766;1255;61129;-81
2023/03/18 12:12:52;;;;;;;;;;;;;;;13.61;46.13;101131.60;107415;1256;124766;-82
2023/03/18 12:15:37;;;;;;;;;;;;;;;13.59;46.00;101131.23;107706;1257;67376;-85
2023/03/18 12:18:13;;;;;;;;;;;;;;;13.66;46.08;101129.73;107249;1254;72697;-83
2023/03/18 12:20:43;;;;;;;;;;;;;;;13.71;46.02;101125.95;108603;1254;61012;-87
2023/03/18 12:23:30;;;;;;;;;;;;;;;13.74;46.00;101125.65;107424;1254;61353;-85
2023/03/18 12:26:24;;;;;;;;;;;;;;;13.80;45.94;101125.06;107657;1254;124076;-84
2023/03/18 12:29:01;;;;;;;;;;;;;;;13.86;45.79;101120.40;107814;1254;65602;-81
2023/03/18 12:31:34;;;;;;;;;;;;;;;13.87;45.71;101128.00;107389;1254;124099;-85
2023/03/18 12:37:02;;;;;;;;;;;;;;;13.93;45.74;101133.05;108021;1254;125069;-83
2023/03/18 12:39:48;;;;;;;;;;;;;;;13.99;45.79;101135.10;108216;1254;74448;-85
2023/03/18 12:42:43;;;;;;;;;;;;;;;14.00;45.76;101136.16;107763;1260;124972;-84
2023/03/18 12:45:14;;;;;;;;;;;;;;;13.98;45.56;101136.14;107586;1254;72839;-84
2023/03/18 12:47:44;;;;;;;;;;;;;;;14.01;45.49;101137.42;107729;1254;61699;-83
2023/03/18 12:50:47;;;;;;;;;;;;;;;14.02;45.60;101132.50;107538;1254;124768;-82
2023/03/18 12:53:25;;;;;;;;;;;;;;;14.01;45.53;101137.44;107060;1261;73985;-85
2023/03/18 12:55:55;;;;;;;;;;;;;;;14.02;45.41;101140.27;107303;1257;124189;-84
2023/03/18 12:58:25;;;;;;;;;;;;;;;13.97;45.29;101140.55;107437;1255;72497;-83
2023/03/18 13:00:58;;;;;;;;;;;;;;;13.95;45.34;101135.38;107497;1256;124838;-85
2023/03/18 13:03:38;;;;;;;;;;;;;;;14.00;45.40;101131.05;107329;1256;60852;-84
2023/03/18 13:06:11;;;;;;;;;;;;;;;14.02;45.30;101123.67;107426;1256;73201;-83
2023/03/18 13:09:03;;;;;;;;;;;;;;;14.01;45.27;101122.61;107328;1255;124019;-85
2023/03/18 13:11:57;;;;;;;;;;;;;;;14.00;45.14;101124.18;107460;1256;72630;-83
2023/03/18 13:14:31;;;;;;;;;;;;;;;13.98;45.17;101123.98;107277;1255;124419;-81
2023/03/18 13:16:58;;;;;;;;;;;;;;;13.94;45.17;101126.36;107761;1256;61267;-82
2023/03/18 13:19:26;;;;;;;;;;;;;;;13.91;45.23;101128.27;107458;1256;124285;-84
2023/03/18 13:22:08;;;;;;;;;;;;;;;13.83;45.00;101129.88;107493;1260;66208;-82
2023/03/18 13:24:39;;;;;;;;;;;;;;;13.72;45.10;101132.85;107758;1255;124938;-82
2023/03/18 13:27:20;;;;;;;;;;;;;;;13.69;45.10;101140.21;107993;1259;61812;-84
2023/03/18 13:29:47;;;;;;;;;;;;;;;13.68;45.23;101145.66;108089;1257;60124;-82
2023/03/18 13:32:29;;;;;;;;;;;;;;;13.67;45.30;101148.45;107601;1255;124756;-82
2023/03/18 13:35:09;;;;;;;;;;;;;;;13.64;45.37;101152.11;107936;1256;66944;-80
2023/03/18 13:37:45;;;;;;;;;;;;;;;13.64;45.33;101149.80;107595;1256;124588;-81
2023/03/18 13:40:18;;;;;;;;;;;;;;;13.60;45.41;101148.86;107623;1255;61541;-83
2023/03/18 13:42:46;;;;;;;;;;;;;;;13.59;45.49;101147.25;107719;1256;124477;-81
2023/03/18 13:45:25;;;;;;;;;;;;;;;13.58;45.48;101148.11;107880;1256;73052;-83
2023/03/18 13:47:57;;;;;;;;;;;;;;;13.58;45.48;101155.71;107802;1256;66808;-86
2023/03/18 13:50:33;;;;;;;;;;;;;;;13.56;45.38;101149.14;107469;1257;124151;-83
2023/03/18 13:53:01;;;;;;;;;;;;;;;13.50;45.42;101143.03;107631;1259;59863;-84
2023/03/18 13:55:38;;;;;;;;;;;;;;;13.48;45.47;101138.92;107708;1254;124198;-83
2023/03/18 13:58:20;;;;;;;;;;;;;;;13.46;45.38;101142.06;108147;1256;73241;-84
2023/03/18 14:03:52;;;;;;;;;;;;;;;13.39;45.26;101145.11;107720;1254;72534;-82
2023/03/18 14:06:38;;;;;;;;;;;;;;;13.32;45.30;101153.96;107319;1254;124248;-84
2023/03/18 14:09:25;;;;;;;;;;;;;;;13.25;45.44;101149.20;108349;1254;60001;-81
2023/03/18 14:12:02;;;;;;;;;;;;;;;13.23;45.63;101151.27;107834;1254;74736;-81
2023/03/18 14:14:51;;;;;;;;;;;;;;;13.21;45.75;101146.83;107538;1259;124281;-82
2023/03/18 14:17:28;;;;;;;;;;;;;;;13.08;45.41;101147.44;107849;1255;71537;-81
2023/03/18 14:19:57;;;;;;;;;;;;;;;12.91;45.44;101149.89;107679;1257;124120;-82
2023/03/18 14:22:34;;;;;;;;;;;;;;;12.79;45.45;101150.33;107934;1256;60910;-83
2023/03/18 14:25:20;;;;;;;;;;;;;;;12.70;45.50;101147.84;107375;1254;124308;-83
2023/03/18 14:27:54;;;;;;;;;;;;;;;12.66;45.61;101149.69;107779;1254;66810;-84
2023/03/18 14:30:47;;;;;;;;;;;;;;;12.64;45.73;101148.59;107274;1261;124411;-84
2023/03/18 14:33:20;;;;;;;;;;;;;;;12.60;45.79;101148.86;107312;1259;61247;-83
2023/03/18 14:36:06;;;;;;;;;;;;;;;12.58;45.93;101142.12;107627;1254;59944;-86
2023/03/18 14:38:49;;;;;;;;;;;;;;;12.58;45.91;101139.65;107596;1254;124576;-83
2023/03/18 14:41:27;;;;;;;;;;;;;;;12.55;45.91;101135.36;107238;1260;65866;-84
2023/03/18 14:44:05;;;;;;;;;;;;;;;12.52;46.06;101129.83;107464;1258;124760;-83
2023/03/18 14:46:33;;;;;;;;;;;;;;;12.51;46.19;101128.40;107874;1259;60808;-84
2023/03/18 14:49:00;;;;;;;;;;;;;;;12.52;46.26;101122.96;107826;1257;124913;-83